Date,TemperatureHighF,TemperatureAvgF,TemperatureLowF,DewpointHighF,DewpointAvgF,DewpointLowF,HumidityHigh,HumidityAvg,HumidityLow,PressureMaxIn,PressureMinIn,WindSpeedMaxMPH,WindSpeedAvgMPH,GustSpeedMaxMPH,PrecipitationSumIn
2013-1-3,85,81,78,76,75,74,92,84,72,30.05,29.89,7,3,13,0.00
2013-1-4,85,81,78,76,74,73,87,81,73,30.05,29.94,10,5,18,0.00
2013-1-5,84,81,76,77,76,73,94,85,77,30.00,29.93,14,7,20,0.00
2013-1-6,85,80,74,77,75,73,96,87,76,30.01,29.90,13,7,28,0.00
2013-1-7,82,80,76,77,75,74,93,86,82,29.96,29.85,12,7,21,0.00
2013-1-8,84,80,77,77,76,73,95,85,80,29.94,29.84,15,8,24,0.03
2013-1-9,85,83,81,78,78,76,89,84,79,29.95,29.87,18,11,28,0.00
2013-1-10,86,82,78,78,76,74,92,83,74,29.99,29.86,27,14,27,0.02
2013-1-11,84,82,78,77,75,73,91,81,73,29.98,29.88,23,13,23,0.01
2013-1-12,84,81,79,76,74,72,86,81,71,29.94,29.87,25,11,25,0.00
2013-1-13,81,80,80,75,73,71,83,78,73,29.89,29.85,22,15,22,0.00
2013-1-14,86,82,80,76,74,71,85,76,64,29.98,29.90,20,9,20,0.00
2013-1-15,85,81,79,76,74,72,86,80,71,29.95,29.86,22,11,22,0.00
2013-1-16,85,81,77,74,73,72,86,78,66,29.98,29.86,20,8,20,0.00
2013-1-17,86,78,74,74,71,68,91,79,58,30.10,29.94,20,4,20,0.01
2013-1-18,75,70,67,71,68,66,97,94,85,30.20,30.07,24,14,24,1.83
2013-1-19,69,67,66,68,66,64,97,95,92,30.20,30.07,24,14,24,0.89
2013-1-20,72,70,69,71,69,67,97,96,91,30.12,29.98,22,13,22,1.83
2013-1-21,75,72,70,72,71,69,97,94,88,30.08,29.99,20,9,20,1.40
2013-1-22,79,75,72,74,72,70,96,90,80,30.10,29.99,16,6,18,0.00
2013-1-23,81,76,73,75,73,71,96,90,78,30.13,30.03,12,3,12,1.81
2013-1-24,79,74,72,73,71,69,95,89,81,30.13,30.05,22,7,22,0.47
2013-1-25,76,74,71,72,71,69,96,91,84,30.12,30.02,20,6,20,0.52
2013-1-26,79,75,72,73,72,70,97,90,80,30.10,29.99,20,6,20,0.51
2013-1-27,84,78,72,76,73,71,98,87,71,30.08,29.99,12,3,12,0.01
2013-1-28,84,80,77,76,75,73,91,84,74,30.08,29.96,22,9,22,0.00
2013-1-29,84,81,79,76,74,71,91,81,67,30.01,29.88,23,13,23,0.00
2013-1-30,88,81,76,77,74,71,96,82,67,29.92,29.81,20,6,20,0.00
2013-1-31,85,79,75,77,75,72,97,87,74,30.06,29.89,14,5,14,0.00